Terminal Aerodrome Forecast
Issued by NWS

Home | Current Version | Previous Version | Text Only | Print | Product List | Glossary On
Versions: 1 2 3 4 5 6 7 8 9 10 11 12 13 14 15 16 17
579
FTUS44 KLZK 240523
TAFHRO
TAF
KHRO 240523Z 2406/2506 15004KT P6SM SCT090 BKN150
     FM241200 15007KT P6SM VCSH FEW010 SCT030 OVC050
     FM241600 16009KT P6SM VCTS SCT030 OVC050CB=

USA.gov is the U.S. government's official web portal to all federal, state and local government web resources and services.